Terminal Aerodrome Forecast
Issued by NWS Cleveland, OH

Home | Current Version | Previous Version | Graphics & Text | Print | Product List | Glossary On
Versions: 1 2 3 4 5 6 7 8 9 10 11 12 13 14 15 16 17 18 19 20 21 22 23 24 25 26 27 28 29 30 31 32 33 34
000
FTUS41 KCLE 241000 AAA
TAFCLE
TAF AMD
KCLE 241019Z 2410/2512 25006KT 6SM BR OVC008
     FM241200 25006KT P6SM OVC025
     FM241500 25010KT P6SM OVC015
     FM242000 25010KT 3SM -SHSN BR OVC008=

USA.gov is the U.S. government's official web portal to all federal, state and local government web resources and services.